createdAt,value
2023-04-05T00:01:19.437Z,96230.47
2023-04-05T00:03:49.151Z,96232.50
2023-04-05T00:06:17.551Z,96212.28
2023-04-05T00:08:50.099Z,96195.97
2023-04-05T00:11:20.108Z,96217.25
2023-04-05T00:13:48.501Z,96216.63
2023-04-05T00:16:17.362Z,96190.97
2023-04-05T00:18:50.063Z,96208.06
2023-04-05T00:21:18.676Z,96208.81
2023-04-05T00:23:46.957Z,96212.44
2023-04-05T00:26:15.774Z,96207.00
2023-04-05T00:28:45.821Z,96080.72
2023-04-05T00:31:14.219Z,96208.63
2023-04-05T00:33:43.321Z,96209.81
2023-04-05T00:36:13.180Z,96165.06
2023-04-05T00:38:42.626Z,96206.16
2023-04-05T00:41:12.300Z,96196.72
2023-04-05T00:43:41.169Z,96199.97
2023-04-05T00:46:11.224Z,96197.97
2023-04-05T00:48:40.215Z,96202.63
2023-04-05T00:51:11.675Z,96196.25
2023-04-05T00:53:41.073Z,96171.72
2023-04-05T00:56:13.812Z,96152.84
2023-04-05T00:58:43.034Z,96191.97
2023-04-05T01:01:18.827Z,96193.06
2023-04-05T01:03:54.060Z,96178.41
2023-04-05T01:06:54.622Z,96185.06
2023-04-05T01:09:34.796Z,96197.81
2023-04-05T01:12:07.358Z,96164.34
2023-04-05T01:14:46.502Z,96186.44
2023-04-05T01:17:16.606Z,96182.81
2023-04-05T01:19:48.320Z,96183.66
2023-04-05T01:22:41.370Z,96185.28
2023-04-05T01:25:37.444Z,96097.66
2023-04-05T01:28:36.431Z,96180.47
2023-04-05T01:31:10.226Z,96179.25
2023-04-05T01:33:46.239Z,96147.69
2023-04-05T01:36:21.741Z,96170.34
2023-04-05T01:38:52.235Z,96168.19
2023-04-05T01:41:21.681Z,96173.34
2023-04-05T01:43:49.972Z,96179.25
2023-04-05T01:46:19.710Z,96172.38
2023-04-05T01:48:48.068Z,96177.19
2023-04-05T01:51:16.489Z,96170.47
2023-04-05T01:53:44.844Z,96168.59
2023-04-05T01:56:13.162Z,96169.44
2023-04-05T01:58:41.504Z,96164.16
2023-04-05T02:01:09.825Z,96164.16
2023-04-05T02:03:39.667Z,96167.81
2023-04-05T02:06:08.417Z,96169.81
2023-04-05T02:08:36.748Z,96167.97
2023-04-05T02:11:05.014Z,96166.34
2023-04-05T02:13:33.383Z,96163.28
2023-04-05T02:16:01.795Z,96155.06
2023-04-05T02:18:31.721Z,96144.50
2023-04-05T02:21:05.637Z,96045.34
2023-04-05T02:23:34.238Z,96153.81
2023-04-05T02:26:02.935Z,96146.50
2023-04-05T02:28:31.731Z,96153.44
2023-04-05T02:31:00.152Z,96142.06
2023-04-05T02:33:29.849Z,96150.97
2023-04-05T02:35:58.245Z,96142.06
2023-04-05T02:38:28.251Z,96144.84
2023-04-05T02:40:56.693Z,96139.56
2023-04-05T02:43:25.121Z,96136.94
2023-04-05T02:45:53.600Z,96143.25
2023-04-05T02:48:21.884Z,96137.13
2023-04-05T02:50:50.320Z,96134.25
2023-04-05T02:53:18.742Z,96133.78
2023-04-05T02:55:55.270Z,96137.41
2023-04-05T02:58:24.050Z,96139.78
2023-04-05T03:00:54.574Z,96120.84
2023-04-05T03:03:24.196Z,96145.69
2023-04-05T03:06:00.660Z,96136.94
2023-04-05T03:08:29.061Z,96140.16
2023-04-05T03:10:58.789Z,96138.50
2023-04-05T03:13:27.053Z,96140.31
2023-04-05T03:15:56.200Z,96084.84
2023-04-05T03:18:26.070Z,96138.03
2023-04-05T03:20:56.957Z,96139.91
2023-04-05T03:23:27.451Z,96138.25
2023-04-05T03:25:57.520Z,96144.50
2023-04-05T03:28:27.383Z,96141.06
2023-04-05T03:30:55.790Z,96104.56
2023-04-05T03:33:24.073Z,96140.16
2023-04-05T03:35:52.809Z,96143.63
2023-04-05T03:38:21.594Z,96142.59
2023-04-05T03:40:50.043Z,96148.53
2023-04-05T03:43:18.752Z,96141.63
2023-04-05T03:45:48.563Z,96147.88
2023-04-05T03:48:20.232Z,96138.97
2023-04-05T03:50:48.551Z,96145.91
2023-04-05T03:53:19.113Z,96145.91
2023-04-05T03:55:49.718Z,96137.69
2023-04-05T03:58:18.367Z,96151.34
2023-04-05T04:00:48.905Z,96151.72
2023-04-05T04:03:17.244Z,96148.44
2023-04-05T04:05:45.876Z,96147.00
2023-04-05T04:08:14.603Z,96107.66
2023-04-05T04:10:43.225Z,96140.06
2023-04-05T04:13:11.492Z,96136.44
2023-04-05T04:15:40.045Z,96139.06
2023-04-05T04:18:10.261Z,96139.06
2023-04-05T04:20:38.746Z,96139.69
2023-04-05T04:23:10.264Z,96128.78
2023-04-05T04:25:38.870Z,96138.06
2023-04-05T04:28:08.125Z,96032.59
2023-04-05T04:30:36.897Z,96137.78
2023-04-05T04:33:09.212Z,96136.53
2023-04-05T04:35:39.914Z,96143.97
2023-04-05T04:38:09.193Z,96135.25
2023-04-05T04:40:40.058Z,96141.50
2023-04-05T04:43:14.515Z,96124.13
2023-04-05T04:45:43.470Z,96149.78
2023-04-05T04:48:14.261Z,96145.53
2023-04-05T04:50:44.874Z,96126.03
2023-04-05T04:53:14.472Z,96140.63
2023-04-05T04:55:43.513Z,96138.34
2023-04-05T04:58:12.668Z,96139.94
2023-04-05T05:00:42.102Z,96139.16
2023-04-05T05:03:11.877Z,96140.78
2023-04-05T05:05:45.941Z,96143.88
2023-04-05T05:08:14.789Z,96144.50
2023-04-05T05:10:43.620Z,96142.34
2023-04-05T05:13:12.431Z,96132.25
2023-04-05T05:15:42.038Z,96133.69
2023-04-05T05:18:10.544Z,96132.25
2023-04-05T05:20:39.128Z,96129.34
2023-04-05T05:23:09.443Z,96134.69
2023-04-05T05:25:38.737Z,96130.69
2023-04-05T05:28:07.229Z,96128.31
2023-04-05T05:30:35.514Z,96129.75
2023-04-05T05:33:03.957Z,96125.97
2023-04-05T05:35:32.650Z,96122.75
2023-04-05T05:38:01.564Z,96117.94
2023-04-05T05:40:31.546Z,96117.56
2023-04-05T05:42:59.831Z,96120.66
2023-04-05T05:45:28.708Z,96126.38
2023-04-05T05:47:58.114Z,96122.38
2023-04-05T05:50:26.575Z,96126.47
2023-04-05T05:52:54.877Z,96124.78
2023-04-05T05:55:23.604Z,96117.84
2023-04-05T05:57:53.907Z,96126.69
2023-04-05T06:00:22.980Z,96127.19
2023-04-05T06:02:52.410Z,96115.72
2023-04-05T06:05:20.831Z,96120.28
2023-04-05T06:07:49.125Z,96120.31
2023-04-05T06:10:17.421Z,96114.50
2023-04-05T06:12:46.207Z,96118.00
2023-04-05T06:15:16.106Z,96071.91
2023-04-05T06:17:45.045Z,96121.72
2023-04-05T06:20:14.329Z,96122.81
2023-04-05T06:22:42.759Z,96128.41
2023-04-05T06:25:13.155Z,96119.34
2023-04-05T06:27:41.634Z,96123.72
2023-04-05T06:30:10.780Z,96125.78
2023-04-05T06:32:40.509Z,96125.84
2023-04-05T06:35:09.716Z,96115.50
2023-04-05T06:37:37.985Z,96098.88
2023-04-05T06:40:07.770Z,96127.38
2023-04-05T06:42:36.386Z,96117.59
2023-04-05T06:45:05.680Z,96123.78
2023-04-05T06:47:35.936Z,96115.28
2023-04-05T06:50:07.212Z,96098.66
2023-04-05T06:52:36.118Z,96109.78
2023-04-05T06:55:05.147Z,96126.38
2023-04-05T06:57:33.428Z,96121.13
2023-04-05T07:00:01.750Z,96128.91
2023-04-05T07:02:30.714Z,96125.47
2023-04-05T07:05:05.112Z,96127.78
2023-04-05T07:07:34.961Z,96131.28
2023-04-05T07:10:03.229Z,96136.78
2023-04-05T07:12:31.729Z,96129.91
2023-04-05T07:15:01.080Z,96130.31
2023-04-05T07:17:29.568Z,96129.94
2023-04-05T07:19:57.863Z,96112.16
2023-04-05T07:22:26.231Z,96122.84
2023-04-05T07:24:55.921Z,96116.53
2023-04-05T07:27:24.370Z,96124.91
2023-04-05T07:29:52.641Z,96110.00
2023-04-05T07:32:21.085Z,96066.75
2023-04-05T07:34:49.559Z,96117.25
2023-04-05T07:37:17.854Z,96128.06
2023-04-05T07:39:46.554Z,96128.94
2023-04-05T07:42:17.965Z,96128.31
2023-04-05T07:44:46.823Z,96125.88
2023-04-05T07:47:15.376Z,96133.22
2023-04-05T07:49:43.901Z,96137.91
2023-04-05T07:52:12.335Z,96130.16
2023-04-05T07:54:43.337Z,96129.59
2023-04-05T07:57:11.724Z,96124.06
2023-04-05T07:59:41.775Z,96128.59
2023-04-05T08:02:14.608Z,96134.28
2023-04-05T08:04:43.325Z,96129.41
2023-04-05T08:07:11.813Z,96137.16
2023-04-05T08:09:40.079Z,96134.72
2023-04-05T08:12:08.960Z,96095.91
2023-04-05T08:14:37.672Z,96133.47
2023-04-05T08:17:07.484Z,96129.97
2023-04-05T08:19:35.804Z,96125.69
2023-04-05T08:22:04.481Z,96093.78
2023-04-05T08:24:32.892Z,96126.03
2023-04-05T08:27:01.613Z,96121.94
2023-04-05T08:29:30.103Z,96126.00
2023-04-05T08:31:59.137Z,96115.13
2023-04-05T08:34:28.930Z,96119.59
2023-04-05T08:37:00.587Z,96123.84
2023-04-05T08:39:28.991Z,96103.66
2023-04-05T08:42:04.831Z,96123.03
2023-04-05T08:44:33.461Z,96117.72
2023-04-05T08:47:02.560Z,96119.53
2023-04-05T08:49:32.355Z,96110.53
2023-04-05T08:52:02.306Z,96039.50
2023-04-05T08:54:30.751Z,96117.16
2023-04-05T08:57:01.227Z,96111.09
2023-04-05T08:59:30.099Z,96112.09
2023-04-05T09:02:00.988Z,96111.66
2023-04-05T09:04:38.386Z,96113.91
2023-04-05T09:07:08.880Z,96117.56
2023-04-05T09:09:40.033Z,96118.13
2023-04-05T09:12:09.620Z,96116.41
2023-04-05T09:14:39.282Z,96100.16
2023-04-05T09:17:08.378Z,96107.88
2023-04-05T09:19:38.120Z,96110.53
2023-04-05T09:22:07.615Z,96088.69
2023-04-05T09:24:40.976Z,96108.38
2023-04-05T09:27:11.404Z,96102.94
2023-04-05T09:29:41.552Z,96105.22
2023-04-05T09:32:11.086Z,96104.19
2023-04-05T09:34:42.415Z,96103.28
2023-04-05T09:37:15.660Z,96100.47
2023-04-05T09:39:44.573Z,96107.84
2023-04-05T09:42:15.705Z,96111.13
2023-04-05T09:44:51.354Z,96108.22
2023-04-05T09:47:21.581Z,96108.50
2023-04-05T09:49:51.345Z,96099.56
2023-04-05T09:52:23.712Z,96103.94
2023-04-05T09:54:54.389Z,96098.81
2023-04-05T09:57:23.760Z,96104.50
2023-04-05T09:59:52.175Z,96105.88
2023-04-05T10:02:20.909Z,96102.31
2023-04-05T10:04:50.869Z,96096.16
2023-04-05T10:07:21.283Z,96088.50
2023-04-05T10:09:50.111Z,96099.94
2023-04-05T10:12:27.092Z,96101.72
2023-04-05T10:14:57.037Z,96088.88
2023-04-05T10:17:29.591Z,96090.78
2023-04-05T10:20:11.155Z,96084.19
2023-04-05T10:23:08.123Z,96081.53
2023-04-05T10:26:00.325Z,96077.94
2023-04-05T10:28:33.070Z,96084.44
2023-04-05T10:31:12.887Z,96080.78
2023-04-05T10:33:47.841Z,96070.22
2023-04-05T10:36:28.780Z,96075.38
2023-04-05T10:39:05.464Z,96074.13
2023-04-05T10:41:41.800Z,96071.94
2023-04-05T10:44:25.123Z,96072.59
2023-04-05T10:46:56.381Z,96057.97
2023-04-05T10:49:33.840Z,96071.34
2023-04-05T10:52:04.254Z,96079.34
2023-04-05T10:54:37.078Z,96017.03
2023-04-05T10:57:09.309Z,96065.84
2023-04-05T10:59:43.171Z,96064.97
2023-04-05T11:02:11.559Z,96064.53
2023-04-05T11:04:42.304Z,96063.56
2023-04-05T11:07:17.355Z,96058.28
2023-04-05T11:09:54.851Z,96060.91
2023-04-05T11:13:04.468Z,96054.88
2023-04-05T11:15:34.309Z,96050.34
2023-04-05T11:18:04.917Z,96020.72
2023-04-05T11:20:44.421Z,96046.84
2023-04-05T11:23:15.829Z,96052.44
2023-04-05T11:25:49.028Z,96041.38
2023-04-05T11:28:37.882Z,96044.53
2023-04-05T11:31:15.681Z,96040.56
2023-04-05T11:33:59.698Z,96039.19
2023-04-05T11:36:31.593Z,96033.47
2023-04-05T11:39:26.181Z,96037.31
2023-04-05T11:42:05.650Z,96035.09
2023-04-05T11:44:45.776Z,96031.56
2023-04-05T11:47:14.250Z,96030.25
2023-04-05T11:49:42.840Z,96019.84
2023-04-05T11:52:16.828Z,96020.31
2023-04-05T11:54:47.507Z,96018.78
2023-04-05T11:57:17.506Z,96023.38
2023-04-05T11:59:46.154Z,96004.19
2023-04-05T12:02:14.507Z,96012.53
2023-04-05T12:04:43.163Z,96012.56
2023-04-05T12:07:13.159Z,95971.66
2023-04-05T12:10:05.690Z,95996.03
2023-04-05T12:12:41.599Z,96005.38
2023-04-05T12:15:12.057Z,95994.94
2023-04-05T12:17:45.034Z,95997.41
2023-04-05T12:20:14.768Z,95995.47
2023-04-05T12:22:44.919Z,95995.97
2023-04-05T12:25:14.993Z,95990.94
2023-04-05T12:27:43.732Z,95985.81
2023-04-05T12:30:18.116Z,95975.50
2023-04-05T12:32:47.914Z,95981.19
2023-04-05T12:35:21.095Z,95979.22
2023-04-05T12:37:52.167Z,95968.38
2023-04-05T12:40:25.921Z,95958.22
2023-04-05T12:42:54.242Z,95972.41
2023-04-05T12:45:25.379Z,95960.66
2023-04-05T12:47:54.699Z,95967.81
2023-04-05T12:50:29.364Z,95968.22
2023-04-05T12:53:00.005Z,95968.97
2023-04-05T12:55:30.974Z,95958.22
2023-04-05T12:58:01.463Z,95943.91
2023-04-05T13:00:31.752Z,95949.19
2023-04-05T13:03:01.139Z,95958.16
2023-04-05T13:05:31.419Z,95949.72
2023-04-05T13:07:59.984Z,95943.09
2023-04-05T13:10:29.791Z,95947.81
2023-04-05T13:12:58.339Z,95939.44
2023-04-05T13:15:27.354Z,95942.66
2023-04-05T13:17:56.005Z,95929.78
2023-04-05T13:20:24.466Z,95930.38
2023-04-05T13:22:53.117Z,95926.13
2023-04-05T13:25:21.442Z,95842.44
2023-04-05T13:27:51.553Z,95906.56
2023-04-05T13:30:20.005Z,95882.91
2023-04-05T13:32:48.391Z,95879.84
2023-04-05T13:35:16.760Z,95897.25
2023-04-05T13:37:45.142Z,95902.38
2023-04-05T13:40:13.882Z,95900.28
2023-04-05T13:42:42.225Z,95902.69
2023-04-05T13:45:13.455Z,95901.47
2023-04-05T13:47:42.095Z,95889.91
2023-04-05T13:50:11.404Z,95890.66
2023-04-05T13:52:39.693Z,95814.47
2023-04-05T13:55:09.000Z,95789.56
2023-04-05T13:57:37.587Z,95880.47
2023-04-05T14:00:06.922Z,95881.53
2023-04-05T14:02:37.141Z,95888.25
2023-04-05T14:05:05.771Z,95884.69
2023-04-05T14:07:35.823Z,95885.75
2023-04-05T14:10:04.492Z,95881.44
2023-04-05T14:12:32.872Z,95879.16
2023-04-05T14:15:01.233Z,95888.44
2023-04-05T14:17:29.729Z,95877.22
2023-04-05T14:19:59.609Z,95880.88
2023-04-05T14:22:28.047Z,95869.50
2023-04-05T14:24:56.470Z,95844.75
2023-04-05T14:27:27.169Z,95874.13
2023-04-05T14:29:57.338Z,95865.00
2023-04-05T14:32:26.367Z,95869.00
2023-04-05T14:34:54.860Z,95869.94
2023-04-05T14:37:24.736Z,95872.84
2023-04-05T14:39:53.273Z,95873.97
2023-04-05T14:42:24.729Z,95861.91
2023-04-05T14:44:57.681Z,95844.56
2023-04-05T14:47:26.500Z,95864.13
2023-04-05T14:49:54.912Z,95829.66
2023-04-05T14:52:24.789Z,95856.28
2023-04-05T14:54:53.158Z,95850.28
2023-04-05T14:57:21.607Z,95856.38
2023-04-05T14:59:49.973Z,95856.31
2023-04-05T15:02:18.540Z,95857.78
2023-04-05T15:04:46.956Z,95857.09
2023-04-05T15:07:15.428Z,95850.34
2023-04-05T15:09:45.252Z,95853.84
2023-04-05T15:12:13.665Z,95853.16
2023-04-05T15:14:42.013Z,95849.34
2023-04-05T15:17:10.589Z,95853.38
2023-04-05T15:19:39.926Z,95847.31
2023-04-05T15:22:08.405Z,95842.63
2023-04-05T15:24:38.581Z,95844.41
2023-04-05T15:27:08.405Z,95844.97
2023-04-05T15:29:36.879Z,95850.31
2023-04-05T15:32:05.657Z,95825.97
2023-04-05T15:34:34.164Z,95846.56
2023-04-05T15:37:02.631Z,95847.78
2023-04-05T15:39:30.999Z,95858.44
2023-04-05T15:41:59.843Z,95850.81
2023-04-05T15:44:29.696Z,95844.97
2023-04-05T15:46:58.119Z,95852.25
2023-04-05T15:49:26.529Z,95838.63
2023-04-05T15:51:54.960Z,95849.84
2023-04-05T15:54:23.354Z,95847.78
2023-04-05T15:56:51.707Z,95850.56
2023-04-05T15:59:20.277Z,95849.56
2023-04-05T16:01:50.234Z,95850.25
2023-04-05T16:04:18.722Z,95853.50
2023-04-05T16:06:47.148Z,95848.72
2023-04-05T16:09:15.517Z,95853.09
2023-04-05T16:11:44.391Z,95851.97
2023-04-05T16:14:12.796Z,95846.09
2023-04-05T16:16:50.578Z,95846.41
2023-04-05T16:19:23.892Z,95846.25
2023-04-05T16:21:53.641Z,95825.75
2023-04-05T16:24:22.684Z,95842.44
2023-04-05T16:26:51.085Z,95822.19
2023-04-05T16:29:20.288Z,95838.47
2023-04-05T16:31:49.024Z,95843.81
2023-04-05T16:34:17.486Z,95836.19
2023-04-05T16:36:47.404Z,95820.16
2023-04-05T16:39:15.779Z,95822.81
2023-04-05T16:41:44.451Z,95786.34
2023-04-05T16:44:12.905Z,95744.22
2023-04-05T16:46:41.328Z,95849.00
2023-04-05T16:49:09.695Z,95844.66
2023-04-05T16:51:38.313Z,95845.22
2023-04-05T16:54:08.158Z,95841.88
2023-04-05T16:56:37.141Z,95850.56
2023-04-05T16:59:07.510Z,95847.47
2023-04-05T17:01:36.797Z,95844.38
2023-04-05T17:04:05.240Z,95823.19
2023-04-05T17:06:33.730Z,95803.38
2023-04-05T17:09:02.338Z,95842.56
2023-04-05T17:11:37.235Z,95843.38
2023-04-05T17:14:07.040Z,95847.75
2023-04-05T17:16:36.116Z,95852.31
2023-04-05T17:19:04.915Z,95849.44
2023-04-05T17:21:35.574Z,95845.31
2023-04-05T17:24:04.144Z,95852.88
2023-04-05T17:26:33.991Z,95850.47
2023-04-05T17:29:03.038Z,95842.19
2023-04-05T17:31:33.549Z,95866.94
2023-04-05T17:34:02.093Z,95831.19
2023-04-05T17:36:31.061Z,95844.28
2023-04-05T17:39:00.605Z,95841.97
2023-04-05T17:41:29.187Z,95812.81
2023-04-05T17:43:59.347Z,95864.72
2023-04-05T17:46:40.281Z,95857.28
2023-04-05T17:49:11.430Z,95859.47
2023-04-05T17:51:40.287Z,95861.84
2023-04-05T17:54:08.770Z,95868.94
2023-04-05T17:56:38.177Z,95843.81
2023-04-05T17:59:08.841Z,95873.56
2023-04-05T18:01:39.731Z,95873.31
2023-04-05T18:04:10.136Z,95876.81
2023-04-05T18:06:40.512Z,95874.59
2023-04-05T18:09:10.113Z,95879.38
2023-04-05T18:11:38.840Z,95873.47
2023-04-05T18:14:09.008Z,95714.13
2023-04-05T18:16:37.502Z,95883.97
2023-04-05T18:19:07.339Z,95884.69
2023-04-05T18:21:36.299Z,95877.94
2023-04-05T18:24:04.930Z,95884.78
2023-04-05T18:26:35.143Z,95887.34
2023-04-05T18:29:05.876Z,95891.06
2023-04-05T18:31:52.050Z,95895.94
2023-04-05T18:34:20.566Z,95888.50
2023-04-05T18:36:48.997Z,95899.06
2023-04-05T18:40:00.861Z,95907.78
2023-04-05T18:42:29.236Z,95911.00
2023-04-05T18:44:57.994Z,95908.78
2023-04-05T18:47:28.417Z,95906.81
2023-04-05T18:49:56.927Z,95914.69
2023-04-05T18:52:27.458Z,95858.00
2023-04-05T18:54:58.601Z,95914.81
2023-04-05T18:57:27.762Z,95917.47
2023-04-05T18:59:56.172Z,95921.06
2023-04-05T19:02:24.965Z,95917.66
2023-04-05T19:04:55.595Z,95921.03
2023-04-05T19:07:24.499Z,95911.59
2023-04-05T19:09:53.760Z,95912.75
2023-04-05T19:12:22.748Z,95927.94
2023-04-05T19:14:51.383Z,95918.31
2023-04-05T19:17:19.957Z,95846.91
2023-04-05T19:19:51.196Z,95839.44
2023-04-05T19:22:21.374Z,95929.16
2023-04-05T19:24:50.286Z,95925.16
2023-04-05T19:27:19.134Z,95833.09
2023-04-05T19:29:47.853Z,95915.13
2023-04-05T19:32:17.102Z,95938.94
2023-04-05T19:34:45.901Z,95920.47
2023-04-05T19:37:14.726Z,95930.81
2023-04-05T19:39:46.140Z,95917.06
2023-04-05T19:42:15.071Z,95940.22
2023-04-05T19:44:51.132Z,95939.06
2023-04-05T19:47:21.207Z,95924.31
2023-04-05T19:49:51.343Z,95877.88
2023-04-05T19:52:39.546Z,95934.97
2023-04-05T19:55:29.761Z,95940.03
2023-04-05T19:57:59.551Z,95902.25
2023-04-05T20:00:32.941Z,95936.59
2023-04-05T20:03:02.497Z,95929.50
2023-04-05T20:05:59.673Z,95927.28
2023-04-05T20:08:29.217Z,95931.44
2023-04-05T20:10:59.548Z,95921.13
2023-04-05T20:13:28.862Z,95925.44
2023-04-05T20:15:59.086Z,95920.16
2023-04-05T20:18:29.201Z,95920.59
2023-04-05T20:20:58.509Z,95873.06
2023-04-05T20:23:30.478Z,95905.22
2023-04-05T20:26:01.290Z,95878.44
2023-04-05T20:28:36.500Z,95921.25
2023-04-05T20:31:07.316Z,95909.69
2023-04-05T20:33:43.437Z,95916.50
2023-04-05T20:39:04.436Z,95903.31
2023-04-05T20:41:34.594Z,95903.56
2023-04-05T20:46:35.829Z,95898.66
2023-04-05T20:49:04.296Z,95900.34
2023-04-05T20:51:33.808Z,95880.44
2023-04-05T20:54:03.425Z,95898.97
2023-04-05T20:56:34.732Z,95886.66
2023-04-05T20:59:03.341Z,95891.78
2023-04-05T21:01:31.934Z,95894.06
2023-04-05T21:04:01.845Z,95890.81
2023-04-05T21:06:31.462Z,95897.56
2023-04-05T21:09:01.198Z,95870.53
2023-04-05T21:11:31.097Z,95889.28
2023-04-05T21:14:02.126Z,95881.72
2023-04-05T21:16:32.000Z,95868.09
2023-04-05T21:19:01.674Z,95832.28
2023-04-05T21:21:30.256Z,95876.66
2023-04-05T21:23:58.700Z,95875.03
2023-04-05T21:26:27.118Z,95846.34
2023-04-05T21:28:55.569Z,95881.78
2023-04-05T21:31:26.085Z,95880.59
2023-04-05T21:33:54.855Z,95866.38
2023-04-05T21:36:23.188Z,95873.50
2023-04-05T21:38:51.929Z,95871.88
2023-04-05T21:41:20.328Z,95876.44
2023-04-05T21:43:50.121Z,95870.72
2023-04-05T21:46:20.498Z,95871.56
2023-04-05T21:48:50.977Z,95886.69
2023-04-05T21:51:19.365Z,95870.78
2023-04-05T21:53:48.149Z,95874.50
2023-04-05T21:56:16.804Z,95872.03
2023-04-05T21:58:45.208Z,95868.34
2023-04-05T22:01:13.713Z,95855.50
2023-04-05T22:03:42.138Z,95857.34
2023-04-05T22:06:12.104Z,95865.97
2023-04-05T22:08:40.662Z,95868.06
2023-04-05T22:11:09.402Z,95865.81
2023-04-05T22:13:37.774Z,95853.22
2023-04-05T22:16:06.747Z,95874.63
2023-04-05T22:18:35.225Z,95876.28
2023-04-05T22:21:03.675Z,95834.31
2023-04-05T22:23:33.590Z,95872.22
2023-04-05T22:26:02.299Z,95871.41
2023-04-05T22:28:30.734Z,95874.66
2023-04-05T22:30:59.136Z,95874.47
2023-04-05T22:33:27.594Z,95876.72
2023-04-05T22:35:56.246Z,95872.66
2023-04-05T22:38:24.708Z,95853.09
2023-04-05T22:40:54.533Z,95874.91
2023-04-05T22:43:24.143Z,95860.84
2023-04-05T22:45:52.719Z,95877.78
2023-04-05T22:48:21.523Z,95873.47
2023-04-05T22:50:49.944Z,95864.94
2023-04-05T22:53:18.417Z,95867.56
2023-04-05T22:55:47.256Z,95873.28
2023-04-05T22:58:17.508Z,95863.09
2023-04-05T23:00:52.132Z,95864.13
2023-04-05T23:03:21.061Z,95862.09
2023-04-05T23:05:52.563Z,95852.31
2023-04-05T23:08:20.902Z,95853.13
2023-04-05T23:10:49.572Z,95856.19
2023-04-05T23:13:19.404Z,95849.06
2023-04-05T23:15:47.934Z,95851.13
2023-04-05T23:18:22.160Z,95854.78
2023-04-05T23:20:51.342Z,95836.03
2023-04-05T23:23:19.770Z,95839.09
2023-04-05T23:25:48.125Z,95850.47
2023-04-05T23:28:16.608Z,95852.72
2023-04-05T23:30:46.487Z,95849.66
2023-04-05T23:33:14.914Z,95848.47
2023-04-05T23:35:43.365Z,95849.88
2023-04-05T23:38:12.933Z,95837.63
2023-04-05T23:40:41.477Z,95841.72
2023-04-05T23:43:09.978Z,95847.00
2023-04-05T23:45:38.891Z,95825.84
2023-04-05T23:48:09.137Z,95845.19
2023-04-05T23:50:37.514Z,95841.69
2023-04-05T23:53:06.038Z,95835.97
2023-04-05T23:55:40.437Z,95841.28
2023-04-05T23:58:09.076Z,95827.63
